Time;durP1;ratioP1;P1;durP2;ratioP2;P2;SDS_P1;SDS_P2;PMS_P1;PMS_P2;Temp;Humidity;BMP_temperature;BMP_pressure;BME280_temperature;BME280_humidity;BME280_pressure;Samples;Min_cycle;Max_cycle;Signal;HPM_P1;HPM_P2
2022/12/31 00:01:37;;;;;;;43.88;28.15;;;23.10;43.10;;;;;;6064508;28;84303;-64
2022/12/31 00:04:37;;;;;;;43.35;27.42;;;23.10;43.10;;;;;;6070244;28;83723;-65
2022/12/31 00:07:38;;;;;;;40.83;27.20;;;23.10;43.00;;;;;;6064821;28;86181;-68
2022/12/31 00:10:40;;;;;;;43.38;28.27;;;23.10;43.00;;;;;;6057198;28;83561;-67
2022/12/31 00:13:40;;;;;;;44.30;28.42;;;23.10;42.90;;;;;;6054846;28;83457;-67
2022/12/31 00:16:41;;;;;;;45.53;27.73;;;23.10;42.80;;;;;;6055249;28;83918;-67
2022/12/31 00:19:41;;;;;;;42.10;27.48;;;23.10;42.80;;;;;;6056810;28;84073;-68
2022/12/31 00:22:42;;;;;;;45.28;27.52;;;23.10;42.80;;;;;;6060109;28;83956;-68
2022/12/31 00:25:42;;;;;;;41.15;27.15;;;23.10;42.80;;;;;;6056679;28;83485;-68
2022/12/31 00:28:43;;;;;;;43.63;26.63;;;23.00;42.60;;;;;;6056742;28;86026;-68
2022/12/31 00:31:43;;;;;;;39.78;26.50;;;23.10;42.60;;;;;;6069823;28;84654;-68
2022/12/31 00:34:44;;;;;;;42.65;27.73;;;23.00;42.50;;;;;;6057641;28;83476;-68
2022/12/31 00:37:44;;;;;;;44.13;27.38;;;23.10;42.60;;;;;;6059966;28;83202;-69
2022/12/31 00:40:45;;;;;;;43.42;27.08;;;23.10;42.50;;;;;;6069080;28;83653;-59
2022/12/31 00:43:45;;;;;;;39.05;26.60;;;23.00;42.50;;;;;;6058108;28;83507;-59
2022/12/31 00:46:47;;;;;;;40.05;27.10;;;23.10;42.50;;;;;;6058895;28;83271;-59
2022/12/31 00:49:47;;;;;;;40.25;27.42;;;23.10;42.50;;;;;;6057231;28;84102;-60
2022/12/31 00:52:48;;;;;;;41.78;27.33;;;23.10;42.50;;;;;;6058905;28;90029;-60
2022/12/31 00:55:48;;;;;;;36.60;24.17;;;23.10;42.50;;;;;;6097046;28;83399;-61
2022/12/31 00:58:50;;;;;;;42.05;25.77;;;23.10;42.60;;;;;;6089701;28;83395;-63
2022/12/31 01:01:51;;;;;;;42.95;26.25;;;23.10;42.50;;;;;;6054473;28;84634;-62
2022/12/31 01:04:51;;;;;;;43.05;26.30;;;23.10;42.60;;;;;;6071117;28;82984;-63
2022/12/31 01:07:52;;;;;;;38.15;24.63;;;23.10;42.70;;;;;;6076759;28;83363;-63
2022/12/31 01:14:11;;;;;;;36.58;25.17;;;23.10;42.70;;;;;;6076361;28;86015;-64
2022/12/31 01:17:13;;;;;;;38.25;24.88;;;23.10;42.70;;;;;;6107828;28;85595;-64
2022/12/31 01:20:13;;;;;;;39.83;24.73;;;23.10;42.70;;;;;;6095536;28;83186;-64
2022/12/31 01:23:14;;;;;;;38.90;24.90;;;23.00;42.60;;;;;;6076838;28;83846;-64
2022/12/31 01:26:14;;;;;;;37.67;25.08;;;23.00;42.60;;;;;;6076126;28;83288;-65
2022/12/31 01:29:15;;;;;;;42.78;26.17;;;23.00;42.60;;;;;;6088922;28;83319;-64
2022/12/31 01:32:17;;;;;;;38.10;24.67;;;23.00;42.60;;;;;;6075732;28;83614;-64
2022/12/31 01:35:17;;;;;;;36.42;24.95;;;23.00;42.60;;;;;;6075918;28;84385;-62
2022/12/31 01:38:18;;;;;;;39.78;25.58;;;23.00;43.20;;;;;;6076104;28;84086;-62
2022/12/31 01:41:19;;;;;;;37.20;24.80;;;23.00;42.50;;;;;;6077586;28;83951;-61
2022/12/31 01:44:19;;;;;;;37.88;24.50;;;23.00;42.60;;;;;;6076340;28;83196;-62
2022/12/31 01:47:20;;;;;;;40.35;25.10;;;23.00;42.60;;;;;;6075143;28;83699;-62
2022/12/31 01:50:20;;;;;;;37.35;23.35;;;23.00;42.50;;;;;;6081731;28;82897;-63
2022/12/31 01:53:21;;;;;;;44.63;23.48;;;23.00;42.50;;;;;;6086172;28;83506;-63
2022/12/31 01:56:21;;;;;;;37.25;24.58;;;23.00;42.50;;;;;;6109733;28;83191;-63
2022/12/31 01:59:22;;;;;;;36.22;24.08;;;23.00;42.50;;;;;;6076786;28;83552;-62
2022/12/31 02:02:22;;;;;;;34.65;23.25;;;23.00;42.50;;;;;;6053070;28;83486;-62
2022/12/31 02:05:23;;;;;;;36.53;23.48;;;23.00;42.50;;;;;;6074193;28;89998;-62
2022/12/31 02:08:23;;;;;;;39.55;24.90;;;23.00;42.50;;;;;;6063980;28;83129;-64
2022/12/31 02:11:24;;;;;;;33.92;22.75;;;23.00;42.60;;;;;;6060704;28;83026;-64
2022/12/31 02:14:24;;;;;;;39.17;24.30;;;23.00;42.50;;;;;;6053297;28;83127;-60
2022/12/31 02:17:25;;;;;;;33.47;22.38;;;23.00;42.60;;;;;;6052156;28;84358;-60
2022/12/31 02:20:25;;;;;;;35.00;24.48;;;23.00;42.50;;;;;;6055576;28;84162;-59
2022/12/31 02:23:26;;;;;;;34.13;23.20;;;22.90;42.50;;;;;;6053190;28;83269;-60
2022/12/31 02:26:26;;;;;;;37.55;24.60;;;22.90;42.50;;;;;;6061284;28;83472;-59
2022/12/31 02:29:27;;;;;;;40.58;24.65;;;22.90;42.50;;;;;;6074539;28;83557;-60
2022/12/31 02:32:27;;;;;;;38.72;23.98;;;22.90;42.50;;;;;;6074897;28;85690;-63
2022/12/31 02:35:28;;;;;;;36.10;23.33;;;23.00;42.60;;;;;;6072175;28;83291;-62
2022/12/31 02:38:31;;;;;;;35.28;22.98;;;22.90;42.60;;;;;;6096424;28;85921;-62
2022/12/31 02:41:50;;;;;;;40.75;24.65;;;23.00;42.50;;;;;;6086723;28;83297;-62
2022/12/31 02:44:51;;;;;;;38.08;23.65;;;23.00;42.60;;;;;;6074037;28;83815;-62
2022/12/31 02:47:51;;;;;;;34.03;22.70;;;23.00;42.60;;;;;;6074632;28;83289;-62
2022/12/31 02:50:55;;;;;;;36.22;22.30;;;23.00;42.50;;;;;;6070320;28;83346;-64
2022/12/31 02:53:55;;;;;;;37.00;23.58;;;23.00;42.60;;;;;;6069997;28;83155;-64
2022/12/31 02:56:56;;;;;;;32.67;21.55;;;23.00;42.60;;;;;;6073307;28;84121;-64
2022/12/31 03:03:15;;;;;;;34.25;22.10;;;23.00;42.60;;;;;;6084728;28;87822;-64
2022/12/31 03:06:16;;;;;;;36.78;23.45;;;23.00;42.50;;;;;;6083324;28;83141;-64
2022/12/31 03:09:16;;;;;;;36.42;22.88;;;23.00;42.50;;;;;;6077957;28;83341;-63
2022/12/31 03:15:37;;;;;;;35.65;22.27;;;23.00;42.50;;;;;;6092284;28;83240;-63
2022/12/31 03:25:33;;;;;;;36.08;22.92;;;23.00;42.60;;;;;;6064461;28;83042;-65
2022/12/31 03:28:33;;;;;;;35.22;21.60;;;22.90;42.50;;;;;;6072701;28;86176;-63
2022/12/31 03:31:34;;;;;;;34.78;22.23;;;23.00;42.60;;;;;;6079838;28;83154;-62
2022/12/31 03:34:34;;;;;;;30.60;21.17;;;23.00;42.60;;;;;;6078600;28;84820;-62
2022/12/31 03:37:36;;;;;;;33.88;21.45;;;23.00;43.30;;;;;;6076975;28;84170;-63
2022/12/31 03:40:37;;;;;;;31.50;20.55;;;22.90;42.70;;;;;;6081801;28;84970;-63
2022/12/31 03:43:37;;;;;;;35.95;21.60;;;22.90;42.80;;;;;;6077013;28;84046;-65
2022/12/31 03:46:38;;;;;;;31.25;19.58;;;22.90;42.70;;;;;;6067919;28;82792;-65
2022/12/31 03:49:38;;;;;;;27.90;18.95;;;22.90;42.80;;;;;;6071122;28;83829;-65
2022/12/31 03:52:39;;;;;;;29.52;18.42;;;22.90;42.90;;;;;;6065729;28;85400;-65
2022/12/31 03:55:39;;;;;;;27.73;18.15;;;22.90;42.80;;;;;;6066634;28;83078;-65
2022/12/31 03:58:40;;;;;;;25.08;16.63;;;22.90;42.90;;;;;;6065678;28;84722;-66
2022/12/31 04:01:40;;;;;;;27.33;17.33;;;22.90;43.00;;;;;;6078287;28;83439;-66
2022/12/31 04:04:41;;;;;;;25.90;16.77;;;22.90;43.00;;;;;;6062610;28;83276;-63
2022/12/31 04:07:41;;;;;;;26.00;16.30;;;22.90;42.90;;;;;;6068346;28;84580;-63
2022/12/31 04:10:42;;;;;;;25.45;16.60;;;22.90;43.00;;;;;;6057405;28;83373;-63
2022/12/31 04:13:43;;;;;;;25.38;16.23;;;22.90;43.00;;;;;;6065811;28;83593;-63
2022/12/31 04:16:43;;;;;;;25.75;16.65;;;22.90;43.10;;;;;;6069099;28;83688;-62
2022/12/31 04:19:44;;;;;;;27.55;16.60;;;23.00;42.90;;;;;;6085534;28;86008;-62
2022/12/31 04:22:44;;;;;;;24.40;16.27;;;23.10;42.80;;;;;;6060666;28;83120;-62
2022/12/31 04:25:45;;;;;;;25.50;16.75;;;23.10;42.80;;;;;;6074250;28;84085;-63
2022/12/31 04:28:45;;;;;;;22.60;14.23;;;23.20;42.70;;;;;;6054501;28;83463;-61
2022/12/31 04:31:46;;;;;;;21.27;14.45;;;23.20;42.60;;;;;;6057502;28;83221;-62
2022/12/31 04:34:46;;;;;;;18.92;13.30;;;23.30;42.80;;;;;;6055275;28;83052;-62
2022/12/31 04:37:47;;;;;;;20.70;12.57;;;23.40;42.90;;;;;;6055684;28;83479;-62
2022/12/31 04:44:07;;;;;;;16.63;11.25;;;23.40;42.90;;;;;;6064059;28;83547;-60
2022/12/31 04:47:07;;;;;;;17.20;11.18;;;23.50;43.10;;;;;;6066300;28;84063;-60
2022/12/31 04:50:08;;;;;;;15.30;10.27;;;23.50;42.90;;;;;;6065563;28;83999;-60
2022/12/31 04:53:08;;;;;;;17.00;11.02;;;23.60;43.20;;;;;;6062381;28;83052;-59
2022/12/31 04:56:09;;;;;;;15.50;10.32;;;23.60;43.30;;;;;;6076592;28;83591;-61
2022/12/31 04:59:10;;;;;;;15.63;10.10;;;23.60;43.40;;;;;;6076437;28;83623;-64
2022/12/31 05:02:11;;;;;;;14.27;10.32;;;23.70;43.70;;;;;;6061816;28;84709;-60
2022/12/31 05:05:11;;;;;;;15.98;10.73;;;23.70;43.70;;;;;;6057254;28;83243;-59
2022/12/31 05:08:12;;;;;;;17.10;10.48;;;23.70;43.70;;;;;;6051989;28;83078;-61
2022/12/31 05:11:12;;;;;;;14.25;9.55;;;23.70;44.00;;;;;;6066011;28;83210;-61
2022/12/31 05:14:13;;;;;;;14.80;9.10;;;23.80;43.90;;;;;;6062371;28;83207;-62
2022/12/31 05:17:13;;;;;;;11.70;9.10;;;23.70;44.30;;;;;;6088321;28;81699;-67
2022/12/31 05:20:14;;;;;;;12.23;7.85;;;23.70;44.60;;;;;;6073396;28;80735;-69
2022/12/31 05:23:14;;;;;;;11.05;7.85;;;23.80;44.50;;;;;;6067474;28;84503;-68
2022/12/31 05:26:15;;;;;;;15.68;7.20;;;23.80;44.70;;;;;;6066525;28;81584;-68
2022/12/31 05:29:15;;;;;;;11.70;7.28;;;23.80;44.60;;;;;;6061646;28;82945;-76
2022/12/31 05:32:16;;;;;;;10.10;6.60;;;23.80;44.60;;;;;;6062086;28;81470;-71
2022/12/31 05:35:17;;;;;;;8.32;5.65;;;23.80;44.70;;;;;;6056803;28;82139;-73
2022/12/31 05:38:17;;;;;;;9.88;6.32;;;23.80;45.00;;;;;;6050339;28;81025;-72
2022/12/31 05:41:18;;;;;;;7.80;5.80;;;23.80;45.50;;;;;;6049608;28;80891;-73
2022/12/31 05:44:18;;;;;;;10.93;5.10;;;23.80;45.70;;;;;;6059161;28;82815;-70
2022/12/31 05:47:19;;;;;;;9.23;4.97;;;23.80;46.00;;;;;;6075306;28;82040;-68
2022/12/31 05:50:19;;;;;;;10.73;5.43;;;23.80;46.10;;;;;;6075416;28;80893;-70
2022/12/31 05:53:27;;;;;;;12.38;4.50;;;23.80;46.30;;;;;;6051364;28;81632;-66
2022/12/31 05:56:28;;;;;;;11.43;4.18;;;23.80;46.40;;;;;;6051510;28;81180;-64
2022/12/31 05:59:29;;;;;;;10.75;4.63;;;23.80;46.10;;;;;;6087124;28;81074;-69
2022/12/31 06:02:29;;;;;;;8.43;4.30;;;23.80;46.00;;;;;;6059274;28;80486;-72
2022/12/31 06:05:30;;;;;;;6.30;4.53;;;23.80;45.70;;;;;;6063826;28;81116;-72
2022/12/31 06:08:30;;;;;;;15.00;4.45;;;23.80;45.80;;;;;;6072530;28;80558;-69
2022/12/31 06:11:31;;;;;;;5.20;3.97;;;23.70;45.70;;;;;;6086403;28;82043;-60
2022/12/31 06:14:31;;;;;;;10.82;4.22;;;23.70;45.80;;;;;;6073702;28;80495;-60
2022/12/31 06:17:32;;;;;;;6.75;4.53;;;23.70;45.90;;;;;;6076823;28;80856;-58
2022/12/31 06:20:32;;;;;;;7.30;3.55;;;23.70;46.10;;;;;;6069063;28;80528;-59
2022/12/31 06:23:33;;;;;;;8.02;4.30;;;23.70;46.30;;;;;;6070401;28;82355;-59
2022/12/31 06:26:33;;;;;;;8.93;3.83;;;23.70;46.50;;;;;;6071656;28;80874;-60
2022/12/31 06:29:34;;;;;;;5.75;4.05;;;23.70;46.70;;;;;;6078235;28;80489;-60
2022/12/31 06:32:34;;;;;;;11.32;4.18;;;23.70;47.10;;;;;;6059101;28;83639;-60
2022/12/31 06:35:36;;;;;;;10.52;3.63;;;23.70;47.20;;;;;;6054187;28;81709;-60
2022/12/31 06:38:39;;;;;;;7.90;3.25;;;23.70;47.20;;;;;;6057846;28;81631;-60
2022/12/31 06:41:40;;;;;;;4.72;2.85;;;23.70;47.40;;;;;;6052339;28;80922;-60
2022/12/31 06:44:40;;;;;;;2.40;2.20;;;23.60;48.10;;;;;;6076386;28;80315;-59
2022/12/31 06:47:41;;;;;;;3.10;2.45;;;23.50;48.90;;;;;;6051567;28;83476;-60
2022/12/31 06:50:41;;;;;;;2.58;2.08;;;23.50;49.60;;;;;;6055279;28;80935;-59
2022/12/31 06:53:42;;;;;;;3.92;2.10;;;23.50;49.90;;;;;;6051143;28;83449;-59
2022/12/31 06:56:43;;;;;;;4.22;1.63;;;23.50;50.30;;;;;;6070109;28;80581;-58
2022/12/31 06:59:43;;;;;;;5.32;2.10;;;23.50;51.10;;;;;;6060326;28;80890;-60
2022/12/31 07:02:44;;;;;;;2.17;1.50;;;23.50;51.70;;;;;;6064100;28;80549;-61
2022/12/31 07:05:44;;;;;;;1.67;1.52;;;23.50;52.20;;;;;;6056315;28;80598;-62
2022/12/31 07:08:45;;;;;;;2.45;1.30;;;23.50;52.60;;;;;;6061518;28;81252;-63
2022/12/31 07:11:45;;;;;;;1.17;1.08;;;23.40;53.20;;;;;;6065650;28;80615;-61
2022/12/31 07:14:46;;;;;;;1.70;1.40;;;23.50;53.90;;;;;;6060289;28;82468;-60
2022/12/31 07:17:47;;;;;;;1.33;1.23;;;23.50;54.10;;;;;;6055049;28;80647;-62
2022/12/31 07:20:47;;;;;;;1.42;1.30;;;23.50;54.40;;;;;;6076815;28;80609;-59
2022/12/31 07:23:48;;;;;;;3.45;1.10;;;23.40;55.10;;;;;;6046815;28;80987;-60
2022/12/31 07:26:48;;;;;;;1.10;1.00;;;23.50;55.10;;;;;;6062713;28;80317;-60
2022/12/31 07:29:49;;;;;;;1.50;0.95;;;23.50;55.20;;;;;;6063860;28;81456;-58
2022/12/31 07:32:49;;;;;;;1.05;1.00;;;23.50;55.60;;;;;;6055554;28;80401;-63
2022/12/31 07:35:50;;;;;;;0.98;0.90;;;23.50;55.60;;;;;;6060033;28;80913;-68
2022/12/31 07:38:51;;;;;;;0.93;0.90;;;23.50;56.00;;;;;;6053190;28;85077;-64
2022/12/31 07:41:51;;;;;;;2.88;1.35;;;23.50;56.30;;;;;;6051610;28;81073;-65
2022/12/31 07:44:52;;;;;;;2.22;1.10;;;23.60;55.70;;;;;;6043818;28;81200;-62
2022/12/31 07:47:53;;;;;;;1.30;1.00;;;23.60;55.50;;;;;;6054550;28;81218;-67
2022/12/31 07:50:54;;;;;;;4.43;1.20;;;23.70;55.10;;;;;;6035910;28;80527;-65
2022/12/31 07:53:54;;;;;;;2.33;1.20;;;23.70;55.00;;;;;;6041860;28;81017;-60
2022/12/31 07:56:55;;;;;;;2.58;1.00;;;23.70;55.00;;;;;;6036931;28;86575;-63
2022/12/31 07:59:56;;;;;;;6.28;1.40;;;23.70;55.10;;;;;;6050711;28;81179;-65
2022/12/31 08:02:56;;;;;;;2.45;1.30;;;23.70;55.10;;;;;;6050862;28;80805;-62
2022/12/31 08:05:57;;;;;;;1.90;1.20;;;23.70;54.90;;;;;;6064038;28;81187;-64
2022/12/31 08:08:58;;;;;;;3.38;0.88;;;23.80;55.00;;;;;;6065548;28;80361;-61
2022/12/31 08:11:58;;;;;;;1.77;1.45;;;23.80;54.60;;;;;;6059866;28;80479;-66
2022/12/31 08:14:59;;;;;;;6.68;1.05;;;23.80;55.70;;;;;;6045290;28;83894;-69
2022/12/31 08:18:00;;;;;;;3.25;1.33;;;23.80;55.70;;;;;;6053892;28;80958;-71
2022/12/31 08:21:00;;;;;;;3.20;0.85;;;23.80;55.20;;;;;;6053182;28;80865;-63
2022/12/31 08:24:01;;;;;;;1.25;1.15;;;23.70;54.90;;;;;;6059056;28;80729;-59
2022/12/31 08:27:01;;;;;;;3.55;0.90;;;23.80;54.70;;;;;;6063578;28;84771;-59
2022/12/31 08:30:02;;;;;;;1.70;0.80;;;23.90;54.70;;;;;;6063757;28;80557;-59
2022/12/31 08:33:02;;;;;;;1.08;0.95;;;23.90;54.40;;;;;;6064492;28;82047;-61
2022/12/31 08:36:03;;;;;;;1.75;1.00;;;24.00;54.30;;;;;;6066665;28;80234;-60
2022/12/31 08:39:03;;;;;;;1.10;1.00;;;24.00;54.20;;;;;;6074621;28;81076;-59
2022/12/31 08:42:04;;;;;;;2.15;1.15;;;24.10;54.20;;;;;;6080660;28;80407;-60
2022/12/31 08:45:04;;;;;;;3.03;0.82;;;24.10;53.90;;;;;;6080993;28;80614;-61
2022/12/31 08:48:05;;;;;;;2.88;0.95;;;24.10;53.70;;;;;;6080379;28;81069;-58
2022/12/31 08:51:06;;;;;;;0.70;0.70;;;24.20;53.70;;;;;;6073085;28;80565;-61
2022/12/31 08:54:06;;;;;;;1.73;0.90;;;24.20;53.50;;;;;;6073134;28;83007;-62
2022/12/31 08:57:07;;;;;;;0.70;0.70;;;24.20;53.70;;;;;;6085798;28;83307;-65
2022/12/31 09:00:07;;;;;;;1.05;0.90;;;24.20;53.60;;;;;;6069650;28;82913;-66
2022/12/31 09:03:08;;;;;;;1.60;1.02;;;24.20;53.50;;;;;;6063055;28;80757;-66
2022/12/31 09:06:08;;;;;;;1.75;1.10;;;24.00;50.20;;;;;;6059821;28;80474;-66
2022/12/31 09:09:09;;;;;;;1.30;1.20;;;23.60;47.70;;;;;;6056415;28;80849;-66
2022/12/31 09:12:10;;;;;;;1.40;1.30;;;23.20;47.80;;;;;;6062852;28;80481;-67
2022/12/31 09:15:11;;;;;;;1.60;1.33;;;22.70;48.00;;;;;;6061975;28;81299;-64
2022/12/31 09:18:11;;;;;;;3.67;1.30;;;22.50;48.30;;;;;;6072679;28;80574;-64
2022/12/31 09:21:12;;;;;;;2.72;1.70;;;22.40;48.30;;;;;;6076662;28;80152;-64
2022/12/31 09:24:12;;;;;;;1.98;1.42;;;22.30;48.10;;;;;;6065883;28;82074;-63
2022/12/31 09:27:13;;;;;;;1.77;1.15;;;21.90;48.20;;;;;;6076811;28;80723;-74
2022/12/31 09:30:14;;;;;;;5.80;1.27;;;21.80;48.80;;;;;;6060268;28;85517;-61
2022/12/31 09:33:15;;;;;;;11.80;1.98;;;22.00;49.40;;;;;;6066484;28;81065;-59
2022/12/31 09:36:15;;;;;;;1.30;1.20;;;22.30;50.00;;;;;;6080838;28;80482;-61
2022/12/31 09:39:16;;;;;;;1.50;1.15;;;22.60;50.90;;;;;;6081312;28;80543;-59
2022/12/31 09:42:16;;;;;;;1.42;1.23;;;22.80;51.00;;;;;;6074487;28;80564;-55
2022/12/31 09:45:17;;;;;;;1.15;1.00;;;22.90;51.10;;;;;;6078676;28;80697;-56
2022/12/31 09:48:17;;;;;;;3.40;1.10;;;23.00;51.40;;;;;;6079745;28;81589;-58
2022/12/31 09:51:19;;;;;;;0.88;0.80;;;23.10;51.40;;;;;;6104719;28;80884;-73
2022/12/31 09:54:19;;;;;;;1.25;1.10;;;23.30;51.80;;;;;;6099376;28;80558;-68
2022/12/31 09:57:20;;;;;;;1.17;1.00;;;23.40;51.70;;;;;;6111107;28;82135;-71
2022/12/31 10:00:20;;;;;;;0.90;0.90;;;23.50;52.00;;;;;;6104439;28;81639;-72
2022/12/31 10:03:21;;;;;;;1.58;1.00;;;23.60;52.00;;;;;;6093390;28;80739;-74
2022/12/31 10:06:22;;;;;;;1.80;1.50;;;23.70;50.30;;;;;;6117464;28;82318;-74
2022/12/31 10:09:22;;;;;;;2.33;1.77;;;23.70;49.50;;;;;;6107915;28;81334;-62
2022/12/31 10:12:23;;;;;;;1.92;1.65;;;23.80;50.00;;;;;;6102053;28;82800;-61
2022/12/31 10:15:23;;;;;;;2.33;1.50;;;23.90;48.80;;;;;;6089670;28;81419;-62
2022/12/31 10:18:24;;;;;;;2.08;1.63;;;24.00;48.60;;;;;;6092057;28;80601;-61
2022/12/31 10:21:24;;;;;;;3.08;1.52;;;24.00;48.00;;;;;;6094058;28;80738;-60
2022/12/31 10:24:25;;;;;;;1.80;1.52;;;24.00;47.60;;;;;;6094549;28;80914;-61
2022/12/31 10:27:25;;;;;;;2.13;1.40;;;24.10;47.30;;;;;;6097694;28;82575;-63
2022/12/31 10:30:26;;;;;;;1.50;1.40;;;24.10;48.10;;;;;;6107353;28;80312;-62
2022/12/31 10:33:26;;;;;;;1.60;1.50;;;24.20;48.50;;;;;;6075869;28;80494;-63
2022/12/31 10:36:27;;;;;;;2.25;1.50;;;24.20;48.60;;;;;;6081522;28;80531;-68
2022/12/31 10:39:27;;;;;;;7.13;1.35;;;24.10;48.70;;;;;;6079412;28;81163;-63
2022/12/31 10:42:28;;;;;;;1.45;1.17;;;24.10;49.20;;;;;;6075301;28;80687;-63
2022/12/31 10:45:28;;;;;;;1.50;1.40;;;24.10;48.00;;;;;;6065150;28;80757;-62
2022/12/31 10:48:29;;;;;;;1.42;1.33;;;24.10;48.10;;;;;;6056961;28;80218;-65
2022/12/31 10:51:30;;;;;;;2.65;1.33;;;24.10;48.60;;;;;;6052374;28;83788;-66
2022/12/31 10:54:30;;;;;;;1.50;1.40;;;24.10;48.40;;;;;;6061139;28;80650;-65
2022/12/31 10:57:31;;;;;;;3.22;1.65;;;24.10;48.40;;;;;;6052419;28;80965;-65
2022/12/31 11:00:31;;;;;;;4.35;1.33;;;24.10;48.30;;;;;;6053835;28;80929;-65
2022/12/31 11:03:32;;;;;;;1.38;1.27;;;24.10;48.30;;;;;;6051176;28;80645;-66
2022/12/31 11:06:32;;;;;;;1.42;1.27;;;24.10;48.30;;;;;;6066420;28;81129;-65
2022/12/31 11:09:33;;;;;;;1.88;1.20;;;24.10;47.40;;;;;;6070452;28;80934;-69
2022/12/31 11:12:33;;;;;;;2.05;1.27;;;24.10;47.90;;;;;;6076521;28;84831;-65
2022/12/31 11:15:34;;;;;;;5.25;1.20;;;24.00;48.40;;;;;;6071591;28;81356;-71
2022/12/31 11:18:34;;;;;;;2.30;1.40;;;24.00;49.00;;;;;;6078407;28;81017;-67
2022/12/31 11:21:35;;;;;;;2.38;1.17;;;24.00;49.80;;;;;;6088423;28;80749;-66
2022/12/31 11:24:36;;;;;;;3.70;1.50;;;24.00;50.40;;;;;;6080834;28;81954;-69
2022/12/31 11:27:37;;;;;;;5.68;1.20;;;24.00;50.30;;;;;;6078069;28;81696;-64
2022/12/31 11:30:38;;;;;;;3.22;1.10;;;24.00;51.20;;;;;;6078453;28;80629;-70
2022/12/31 11:33:39;;;;;;;1.52;1.10;;;24.00;51.60;;;;;;6072992;28;80399;-69
2022/12/31 11:36:39;;;;;;;1.17;1.00;;;23.90;51.30;;;;;;6063277;28;80251;-69
2022/12/31 11:39:40;;;;;;;3.65;1.25;;;23.90;51.50;;;;;;6066493;28;82983;-69
2022/12/31 11:42:40;;;;;;;2.03;1.27;;;23.90;52.00;;;;;;6069399;28;81082;-59
2022/12/31 11:45:41;;;;;;;2.65;1.40;;;23.80;52.00;;;;;;6067558;28;80406;-58
2022/12/31 11:48:42;;;;;;;1.58;1.20;;;23.80;52.20;;;;;;6067778;28;81684;-58
2022/12/31 11:51:42;;;;;;;2.38;1.23;;;23.80;52.20;;;;;;6068707;28;81841;-57
2022/12/31 11:54:43;;;;;;;2.28;1.48;;;23.80;52.30;;;;;;6055489;28;80810;-60
2022/12/31 11:57:44;;;;;;;8.55;1.90;;;23.80;52.10;;;;;;6056077;28;80813;-54
2022/12/31 12:00:44;;;;;;;2.85;1.60;;;23.80;52.00;;;;;;6057660;28;85994;-59
2022/12/31 12:03:45;;;;;;;4.05;2.20;;;23.80;51.70;;;;;;6071423;28;80975;-59
2022/12/31 12:06:45;;;;;;;4.80;2.13;;;23.80;51.20;;;;;;6066261;28;87962;-58
2022/12/31 12:09:46;;;;;;;3.47;2.05;;;23.90;51.20;;;;;;6060443;28;82201;-60
2022/12/31 12:12:46;;;;;;;5.13;2.28;;;23.80;51.00;;;;;;6059392;28;80287;-60
2022/12/31 12:15:47;;;;;;;5.43;2.13;;;23.90;50.90;;;;;;6057801;28;84593;-61
2022/12/31 12:18:48;;;;;;;7.00;2.47;;;23.90;50.50;;;;;;6051085;28;84122;-64
2022/12/31 12:21:48;;;;;;;5.95;2.50;;;23.90;50.90;;;;;;6055618;28;81913;-64
2022/12/31 12:24:49;;;;;;;10.63;3.13;;;24.00;50.90;;;;;;6054072;28;80584;-67
2022/12/31 12:27:49;;;;;;;12.82;3.78;;;24.10;50.90;;;;;;6059877;28;84729;-66
2022/12/31 12:30:50;;;;;;;9.27;5.13;;;24.10;50.80;;;;;;6072305;28;82936;-65
2022/12/31 12:33:51;;;;;;;10.80;5.38;;;24.30;51.20;;;;;;6072219;28;80523;-67
2022/12/31 12:36:51;;;;;;;10.88;5.28;;;24.30;51.00;;;;;;6070553;28;80963;-65
2022/12/31 12:39:52;;;;;;;15.85;6.75;;;24.40;50.90;;;;;;6077801;28;81593;-68
2022/12/31 12:42:52;;;;;;;13.13;5.35;;;24.40;50.80;;;;;;6070136;28;81048;-68
2022/12/31 12:45:53;;;;;;;10.60;5.97;;;24.40;50.40;;;;;;6050058;28;83833;-67
2022/12/31 12:48:53;;;;;;;15.63;5.75;;;24.50;50.50;;;;;;6057199;28;84528;-67
2022/12/31 12:51:54;;;;;;;9.05;5.30;;;24.50;50.10;;;;;;6067938;28;81094;-67
2022/12/31 12:54:54;;;;;;;8.93;4.90;;;24.60;50.10;;;;;;6065037;28;80428;-69
2022/12/31 12:57:55;;;;;;;7.10;4.70;;;24.60;50.10;;;;;;6081325;28;82533;-59
2022/12/31 13:00:55;;;;;;;7.35;4.60;;;24.60;49.80;;;;;;6060831;28;81440;-58
2022/12/31 13:03:56;;;;;;;9.02;4.50;;;24.60;50.00;;;;;;6069000;28;80814;-57
2022/12/31 13:06:57;;;;;;;6.53;4.03;;;24.60;49.80;;;;;;6080065;28;80994;-58
2022/12/31 13:09:57;;;;;;;5.78;3.70;;;24.60;49.80;;;;;;6068876;28;80513;-59
2022/12/31 13:12:58;;;;;;;5.65;3.58;;;24.50;49.90;;;;;;6079461;28;81443;-60
2022/12/31 13:15:58;;;;;;;5.60;3.20;;;24.50;50.00;;;;;;6060798;28;83402;-60
2022/12/31 13:18:59;;;;;;;3.42;2.55;;;24.50;50.30;;;;;;6066288;28;81210;-59
2022/12/31 13:21:59;;;;;;;5.38;3.15;;;24.50;50.10;;;;;;6062928;28;80545;-57
2022/12/31 13:25:00;;;;;;;3.47;2.83;;;24.40;49.90;;;;;;6065046;28;80700;-60
2022/12/31 13:28:00;;;;;;;7.75;3.50;;;24.40;49.80;;;;;;6062574;28;81914;-60
2022/12/31 13:31:01;;;;;;;4.45;2.50;;;24.40;49.70;;;;;;6071094;28;80892;-59
2022/12/31 13:34:02;;;;;;;4.28;2.65;;;24.40;49.50;;;;;;6072952;28;81033;-61
2022/12/31 13:37:02;;;;;;;4.10;2.67;;;24.40;49.50;;;;;;6068799;28;85459;-61
2022/12/31 13:40:03;;;;;;;3.42;2.50;;;24.40;49.70;;;;;;6066352;28;80753;-59
2022/12/31 13:43:03;;;;;;;2.85;2.38;;;24.40;49.70;;;;;;6066219;28;81084;-59
2022/12/31 13:46:04;;;;;;;2.40;2.20;;;24.30;49.80;;;;;;6063876;28;81541;-60
2022/12/31 13:49:04;;;;;;;5.22;2.60;;;24.30;49.80;;;;;;6061725;28;84009;-59
2022/12/31 13:52:05;;;;;;;2.58;2.10;;;24.30;49.80;;;;;;6075412;28;81774;-66
2022/12/31 13:55:05;;;;;;;4.15;2.08;;;24.30;49.90;;;;;;6072616;28;80820;-62
2022/12/31 13:58:06;;;;;;;3.65;2.15;;;24.30;49.70;;;;;;6075184;28;83731;-65
2022/12/31 14:01:06;;;;;;;3.78;2.28;;;24.30;49.80;;;;;;6057339;28;81530;-70
2022/12/31 14:04:07;;;;;;;3.65;2.00;;;24.30;50.10;;;;;;6064794;28;80653;-67
2022/12/31 14:07:08;;;;;;;3.08;2.00;;;24.30;50.00;;;;;;6072595;28;80837;-68
2022/12/31 14:10:08;;;;;;;3.20;2.45;;;24.30;50.10;;;;;;6075318;28;80919;-60
2022/12/31 14:13:09;;;;;;;2.80;2.45;;;24.20;50.00;;;;;;6067745;28;80300;-63
2022/12/31 14:16:09;;;;;;;5.00;2.10;;;24.20;50.30;;;;;;6070006;28;81562;-64
2022/12/31 14:19:10;;;;;;;5.15;2.50;;;24.20;50.20;;;;;;6068445;28;83374;-61
2022/12/31 14:22:10;;;;;;;4.22;2.38;;;24.20;50.10;;;;;;6067229;28;81639;-60
2022/12/31 14:25:11;;;;;;;4.80;2.90;;;24.10;49.90;;;;;;6070416;28;81263;-62
2022/12/31 14:28:11;;;;;;;3.88;2.33;;;24.10;49.90;;;;;;6081598;28;81032;-62
2022/12/31 14:31:12;;;;;;;3.38;2.22;;;24.00;49.60;;;;;;6076526;28;80837;-60
2022/12/31 14:34:13;;;;;;;5.07;2.30;;;24.00;49.70;;;;;;6071381;28;80786;-61
2022/12/31 14:37:13;;;;;;;4.15;2.63;;;24.00;49.50;;;;;;6075983;28;80479;-63
2022/12/31 14:40:14;;;;;;;3.22;2.40;;;23.90;49.50;;;;;;6078622;28;80770;-63
2022/12/31 14:43:14;;;;;;;3.53;2.42;;;23.90;49.50;;;;;;6080727;28;81470;-60
2022/12/31 14:46:15;;;;;;;4.38;2.53;;;23.90;49.50;;;;;;6066643;28;80664;-61
2022/12/31 14:49:15;;;;;;;3.10;2.40;;;23.80;49.50;;;;;;6068714;28;80818;-61
2022/12/31 14:52:16;;;;;;;4.55;2.40;;;23.80;49.60;;;;;;6070276;28;80505;-62
2022/12/31 14:55:17;;;;;;;4.40;2.67;;;23.80;49.60;;;;;;6068339;28;80932;-63
2022/12/31 14:58:17;;;;;;;4.15;2.40;;;23.80;50.20;;;;;;6068326;28;80729;-62
2022/12/31 15:01:20;;;;;;;4.53;2.85;;;23.80;49.60;;;;;;6072000;28;80491;-60
2022/12/31 15:04:21;;;;;;;3.80;2.35;;;23.80;49.60;;;;;;6089906;28;84683;-61
2022/12/31 15:07:22;;;;;;;4.32;2.70;;;23.70;49.60;;;;;;6088287;28;83437;-60
2022/12/31 15:10:23;;;;;;;3.15;2.50;;;23.70;49.50;;;;;;6082965;28;80462;-61
2022/12/31 15:13:23;;;;;;;10.20;2.55;;;23.70;49.50;;;;;;6053749;28;85428;-66
2022/12/31 15:16:24;;;;;;;7.13;2.88;;;23.70;49.80;;;;;;6064127;28;80835;-69
2022/12/31 15:19:24;;;;;;;3.10;2.20;;;23.70;49.70;;;;;;6057862;28;81267;-69
2022/12/31 15:22:25;;;;;;;8.20;3.03;;;23.70;50.00;;;;;;6031928;28;85188;-59
2022/12/31 15:25:25;;;;;;;4.63;2.53;;;23.70;50.30;;;;;;6076134;28;82312;-61
2022/12/31 15:28:26;;;;;;;4.65;2.47;;;23.80;50.60;;;;;;6098745;28;81643;-58
2022/12/31 15:31:26;;;;;;;3.85;2.58;;;23.80;50.90;;;;;;6106582;28;80276;-61
2022/12/31 15:34:28;;;;;;;6.78;2.80;;;23.80;50.80;;;;;;6103832;28;80282;-61
2022/12/31 15:37:29;;;;;;;4.93;3.00;;;23.80;50.90;;;;;;6105688;28;81380;-61
2022/12/31 15:40:29;;;;;;;4.43;2.75;;;23.80;50.90;;;;;;6102474;28;80664;-61
2022/12/31 15:43:30;;;;;;;4.38;2.72;;;23.80;50.70;;;;;;6085816;28;81351;-60
2022/12/31 15:46:30;;;;;;;2.95;2.47;;;23.80;50.50;;;;;;6091763;28;80764;-60
2022/12/31 15:49:31;;;;;;;6.18;3.25;;;23.80;50.50;;;;;;6085824;28;81250;-59
2022/12/31 15:52:31;;;;;;;7.15;2.97;;;23.80;50.60;;;;;;6090097;28;82755;-60